Time;durP1;ratioP1;P1;durP2;ratioP2;P2;SDS_P1;SDS_P2;PMS_P1;PMS_P2;Temp;Humidity;BMP_temperature;BMP_pressure;BME280_temperature;BME280_humidity;BME280_pressure;Samples;Min_cycle;Max_cycle;Signal;HPM_P1;HPM_P2
2022/10/27 00:00:44;;;;;;;4.00;1.90;;;;;;;13.54;100.00;101069.34;4992403;28;20224;-80
2022/10/27 00:03:12;;;;;;;5.83;2.30;;;;;;;13.55;100.00;101068.47;4994125;28;20209;-78
2022/10/27 00:05:39;;;;;;;3.63;2.10;;;;;;;13.52;100.00;101077.28;4993164;28;20211;-79
2022/10/27 00:08:07;;;;;;;6.60;4.10;;;;;;;13.52;100.00;101077.28;4992231;28;20212;-80
2022/10/27 00:10:34;;;;;;;10.30;2.17;;;;;;;13.50;100.00;101081.69;4992775;28;20228;-79
2022/10/27 00:13:00;;;;;;;5.20;1.90;;;;;;;13.46;100.00;101083.50;4992374;28;20208;-80
2022/10/27 00:15:27;;;;;;;4.13;1.90;;;;;;;13.42;100.00;101076.59;4993722;28;20239;-79
2022/10/27 00:17:53;;;;;;;6.43;2.10;;;;;;;13.49;100.00;101079.94;4995967;28;20215;-80
2022/10/27 00:20:20;;;;;;;4.37;2.30;;;;;;;13.48;100.00;101081.72;4999816;28;20236;-79
2022/10/27 00:22:46;;;;;;;4.87;2.10;;;;;;;13.53;100.00;101094.72;4999189;28;20214;-79
2022/10/27 00:25:14;;;;;;;2.43;1.80;;;;;;;13.56;100.00;101107.78;5000377;28;20212;-79
2022/10/27 00:27:40;;;;;;;5.03;1.97;;;;;;;13.57;100.00;101120.00;4999928;28;20211;-79
2022/10/27 00:30:08;;;;;;;2.73;1.70;;;;;;;13.59;100.00;101131.31;4999351;28;20232;-79
2022/10/27 00:32:35;;;;;;;6.27;2.00;;;;;;;13.59;100.00;101133.94;4998431;28;20741;-78
2022/10/27 00:35:01;;;;;;;4.67;2.40;;;;;;;13.50;100.00;101142.00;4998046;28;20734;-80
2022/10/27 00:37:28;;;;;;;5.10;1.87;;;;;;;13.51;100.00;101135.84;4998603;28;20602;-79
2022/10/27 00:39:54;;;;;;;6.47;1.93;;;;;;;13.48;100.00;101130.69;4997799;28;20591;-79
2022/10/27 00:42:22;;;;;;;6.27;2.70;;;;;;;13.46;100.00;101130.72;4999254;28;20209;-79
2022/10/27 00:44:49;;;;;;;3.20;2.00;;;;;;;13.39;100.00;101128.22;4997441;28;20220;-78
2022/10/27 00:47:23;;;;;;;2.80;1.60;;;;;;;13.36;100.00;101129.16;4999390;28;20204;-79
2022/10/27 00:49:58;;;;;;;3.13;1.60;;;;;;;13.38;100.00;101126.50;4999832;28;20230;-78
2022/10/27 00:52:30;;;;;;;6.60;2.03;;;;;;;13.38;100.00;101136.97;4997565;28;20227;-77
2022/10/27 00:55:00;;;;;;;3.70;2.00;;;;;;;13.37;100.00;101133.50;4998373;28;20245;-77
2022/10/27 00:57:29;;;;;;;10.17;2.33;;;;;;;13.36;100.00;101126.53;4998285;28;20228;-77
2022/10/27 00:59:57;;;;;;;6.40;2.20;;;;;;;13.36;100.00;101110.81;4996531;28;20229;-79
2022/10/27 01:02:23;;;;;;;6.43;2.20;;;;;;;13.30;100.00;101096.06;4998239;28;20220;-80
2022/10/27 01:04:54;;;;;;;4.30;1.77;;;;;;;13.34;100.00;101090.72;4998324;28;20235;-79
2022/10/27 01:07:21;;;;;;;3.20;1.80;;;;;;;13.30;100.00;101093.44;4997245;28;20705;-79
2022/10/27 01:09:48;;;;;;;2.83;2.53;;;;;;;13.38;100.00;101097.66;4998161;28;20227;-77
2022/10/27 01:12:15;;;;;;;4.80;1.80;;;;;;;13.42;100.00;101100.19;5000879;28;20212;-79
2022/10/27 01:14:43;;;;;;;7.50;2.47;;;;;;;13.39;100.00;101108.09;4999866;28;20586;-79
2022/10/27 01:17:20;;;;;;;6.53;2.10;;;;;;;13.40;100.00;101122.06;4999098;28;20593;-79
2022/10/27 01:20:26;;;;;;;6.47;1.90;;;;;;;13.43;100.00;101120.25;4998488;28;20239;-78
2022/10/27 01:22:59;;;;;;;3.53;1.60;;;;;;;13.46;100.00;101135.97;4999025;28;20655;-79
2022/10/27 01:25:48;;;;;;;5.07;1.63;;;;;;;13.47;100.00;101139.44;4999744;28;20199;-79
2022/10/27 01:28:46;;;;;;;7.93;1.87;;;;;;;13.40;100.00;101143.94;4998118;28;20690;-79
2022/10/27 01:31:18;;;;;;;5.97;2.00;;;;;;;13.43;100.00;101153.50;4995742;28;20283;-80
2022/10/27 01:33:49;;;;;;;2.47;2.27;;;;;;;13.40;100.00;101149.19;4995468;28;20205;-79
2022/10/27 01:36:24;;;;;;;8.87;2.30;;;;;;;13.42;100.00;101138.66;4995616;28;20236;-79
2022/10/27 01:38:57;;;;;;;3.33;1.60;;;;;;;13.44;100.00;101143.00;5000980;28;20248;-79
2022/10/27 01:41:28;;;;;;;4.10;1.87;;;;;;;13.43;100.00;101149.13;5003835;28;20233;-79
2022/10/27 01:44:02;;;;;;;4.70;1.90;;;;;;;13.40;100.00;101137.81;5005694;28;20208;-79
2022/10/27 01:46:30;;;;;;;6.93;1.73;;;;;;;13.39;100.00;101134.34;5005311;28;20201;-78
2022/10/27 01:48:57;;;;;;;5.47;2.30;;;;;;;13.38;100.00;101136.97;5004332;28;20235;-80
2022/10/27 01:51:23;;;;;;;3.07;2.30;;;;;;;13.38;100.00;101145.72;5013579;28;20289;-77
2022/10/27 01:53:52;;;;;;;7.23;2.00;;;;;;;13.42;100.00;101138.66;5013389;28;20192;-79
2022/10/27 01:56:35;;;;;;;1.83;1.70;;;;;;;13.39;100.00;101154.47;5013428;28;20231;-78
2022/10/27 01:59:17;;;;;;;6.73;1.90;;;;;;;13.34;100.00;101154.56;5012510;28;20585;-79
2022/10/27 02:01:56;;;;;;;4.10;1.70;;;;;;;13.35;100.00;101153.66;5012563;28;20240;-79
2022/10/27 02:04:32;;;;;;;6.17;1.70;;;;;;;13.37;100.00;101158.88;5013514;28;20202;-78
2022/10/27 02:07:05;;;;;;;3.97;1.90;;;;;;;13.39;100.00;101154.47;5014080;28;20193;-79
2022/10/27 02:09:39;;;;;;;4.27;2.00;;;;;;;13.42;100.00;101157.00;5015033;28;20214;-79
2022/10/27 02:12:11;;;;;;;5.57;1.97;;;;;;;13.42;100.00;101157.88;5014005;28;20282;-79
2022/10/27 02:14:37;;;;;;;2.87;1.90;;;;;;;13.42;100.00;101157.00;5014032;28;20216;-79
2022/10/27 02:17:09;;;;;;;3.00;1.80;;;;;;;13.37;100.00;101164.97;5014223;28;20231;-79
2022/10/27 02:19:37;;;;;;;3.63;1.73;;;;;;;13.39;100.00;101167.56;5015533;28;20210;-79
2022/10/27 02:22:07;;;;;;;3.13;1.80;;;;;;;13.34;100.00;101175.53;5014064;28;20217;-79
2022/10/27 02:24:34;;;;;;;6.87;1.70;;;;;;;13.39;100.00;101162.31;5014406;28;20234;-80
2022/10/27 02:27:05;;;;;;;5.40;1.60;;;;;;;13.34;100.00;101166.78;5013869;28;20578;-78
2022/10/27 02:29:35;;;;;;;7.97;1.83;;;;;;;13.28;100.00;101173.00;5013493;28;20215;-79
2022/10/27 02:32:06;;;;;;;5.57;2.10;;;;;;;13.29;100.00;101178.22;5013906;28;20206;-79
2022/10/27 02:34:34;;;;;;;5.97;2.27;;;;;;;13.23;100.00;101167.81;5014405;28;20666;-79
2022/10/27 02:37:00;;;;;;;5.20;2.10;;;;;;;13.24;100.00;101164.31;5013914;28;20234;-79
2022/10/27 02:39:27;;;;;;;6.00;1.73;;;;;;;13.24;100.00;101166.03;5013512;28;20208;-79
2022/10/27 02:41:53;;;;;;;2.40;1.87;;;;;;;13.22;100.00;101171.34;5015523;28;20233;-79
2022/10/27 02:44:20;;;;;;;1.70;1.60;;;;;;;13.21;100.00;101171.38;5013917;28;20589;-79
2022/10/27 02:46:46;;;;;;;2.30;2.10;;;;;;;13.24;100.00;101166.94;5013722;28;20698;-79
2022/10/27 02:49:14;;;;;;;4.30;2.03;;;;;;;13.28;100.00;101173.84;5014760;28;20207;-77
2022/10/27 02:51:40;;;;;;;2.93;2.00;;;;;;;13.33;100.00;101165.91;5013762;28;20240;-79
2022/10/27 02:54:07;;;;;;;4.30;2.13;;;;;;;13.32;100.00;101182.56;5015836;28;20753;-79
2022/10/27 02:56:33;;;;;;;3.37;1.90;;;;;;;13.30;100.00;101184.34;5014741;28;20231;-80
2022/10/27 02:59:00;;;;;;;6.20;2.53;;;;;;;13.28;100.00;101178.25;5014183;28;20209;-80
2022/10/27 03:01:26;;;;;;;3.63;1.63;;;;;;;13.34;100.00;101180.78;5014034;28;20231;-79
2022/10/27 03:03:53;;;;;;;3.80;1.90;;;;;;;13.28;100.00;101179.09;5014410;28;20209;-78
2022/10/27 03:06:20;;;;;;;3.87;1.90;;;;;;;13.26;100.00;101186.13;5014997;28;20212;-80
2022/10/27 03:08:47;;;;;;;4.93;2.10;;;;;;;13.28;100.00;101170.38;5014107;28;20215;-79
2022/10/27 03:11:13;;;;;;;4.90;1.90;;;;;;;13.27;100.00;101168.63;5014102;28;20227;-80
2022/10/27 03:13:40;;;;;;;4.20;2.07;;;;;;;13.26;100.00;101178.25;5014471;28;20208;-78
2022/10/27 03:16:07;;;;;;;4.20;1.80;;;;;;;13.28;100.00;101173.84;5013752;28;20234;-80
2022/10/27 03:18:33;;;;;;;4.50;2.00;;;;;;;13.30;100.00;101182.59;5013840;28;20210;-78
2022/10/27 03:20:59;;;;;;;3.60;2.47;;;;;;;13.25;100.00;101196.63;5013413;28;20230;-79
2022/10/27 03:23:27;;;;;;;6.57;2.50;;;;;;;13.26;100.00;101183.50;5012650;28;20215;-78
2022/10/27 03:25:54;;;;;;;6.13;2.63;;;;;;;13.23;100.00;101183.53;5012527;28;20212;-79
2022/10/27 03:28:20;;;;;;;5.37;2.07;;;;;;;13.21;100.00;101182.72;5012702;28;20585;-77
2022/10/27 03:30:46;;;;;;;5.23;1.93;;;;;;;13.18;100.00;101185.41;5013674;28;20230;-79
2022/10/27 03:33:13;;;;;;;7.63;2.43;;;;;;;13.12;100.00;101177.63;5012268;28;20207;-79
2022/10/27 03:35:39;;;;;;;2.30;2.10;;;;;;;13.15;100.00;101166.25;5012216;28;20215;-79
2022/10/27 03:38:06;;;;;;;6.00;2.00;;;;;;;13.16;100.00;101163.59;5012356;28;20652;-79
2022/10/27 03:40:33;;;;;;;6.90;2.77;;;;;;;13.20;100.00;101170.50;5011341;28;20765;-78
2022/10/27 03:43:00;;;;;;;7.23;2.20;;;;;;;13.16;100.00;101171.47;5013321;28;20213;-78
2022/10/27 03:45:27;;;;;;;2.87;2.07;;;;;;;13.16;100.00;101178.44;5011376;28;20210;-77
2022/10/27 03:48:01;;;;;;;4.73;2.40;;;;;;;13.13;100.00;101171.50;5013109;28;20585;-79
2022/10/27 03:50:27;;;;;;;5.40;2.43;;;;;;;13.14;100.00;101168.00;5011857;28;20266;-79
2022/10/27 03:52:54;;;;;;;5.00;2.70;;;;;;;13.16;100.00;101167.94;5010876;28;20682;-79
2022/10/27 03:55:21;;;;;;;4.80;2.80;;;;;;;13.15;100.00;101171.47;5012493;28;20232;-79
2022/10/27 03:57:49;;;;;;;5.53;2.33;;;;;;;13.15;100.00;101169.72;5013577;28;20236;-79
2022/10/27 04:00:17;;;;;;;7.43;2.63;;;;;;;13.17;100.00;101173.16;5012218;28;20761;-79
2022/10/27 04:02:43;;;;;;;3.60;2.33;;;;;;;13.15;100.00;101176.72;5012474;28;20203;-78
2022/10/27 04:05:09;;;;;;;9.27;2.40;;;;;;;13.13;100.00;101165.41;5012767;28;20674;-79
2022/10/27 04:07:36;;;;;;;6.23;2.67;;;;;;;13.08;100.00;101158.47;5011571;28;20208;-78
2022/10/27 04:10:02;;;;;;;4.83;2.70;;;;;;;13.08;100.00;101160.22;5013337;28;20227;-80
2022/10/27 04:12:29;;;;;;;3.87;2.43;;;;;;;13.09;100.00;101161.97;5015246;28;20212;-80
2022/10/27 04:14:57;;;;;;;8.77;2.77;;;;;;;13.05;100.00;101169.00;5012977;28;20211;-80
2022/10/27 04:17:23;;;;;;;7.23;2.63;;;;;;;13.07;100.00;101169.84;5010908;28;20247;-80
2022/10/27 04:19:50;;;;;;;6.37;2.53;;;;;;;13.07;100.00;101172.47;5010176;28;20238;-78
2022/10/27 04:22:16;;;;;;;6.73;2.60;;;;;;;13.11;100.00;101174.13;5010651;28;20208;-80
2022/10/27 04:24:42;;;;;;;4.53;2.70;;;;;;;13.14;100.00;101175.88;5012946;28;20212;-80
2022/10/27 04:27:09;;;;;;;10.43;2.83;;;;;;;13.12;100.00;101169.75;5012321;28;20211;-80
2022/10/27 04:29:36;;;;;;;7.97;2.77;;;;;;;13.13;100.00;101181.13;5011482;28;20223;-79
2022/10/27 04:32:04;;;;;;;4.40;2.43;;;;;;;13.13;100.00;101181.13;5012666;28;20683;-80
2022/10/27 04:34:30;;;;;;;7.90;3.10;;;;;;;13.14;100.00;101178.47;5012783;28;20211;-79
2022/10/27 04:36:56;;;;;;;7.73;2.93;;;;;;;13.18;100.00;101180.16;5011597;28;20227;-79
2022/10/27 04:39:23;;;;;;;7.27;2.80;;;;;;;13.16;100.00;101174.06;5012965;28;20210;-78
2022/10/27 04:41:50;;;;;;;2.63;2.43;;;;;;;13.17;100.00;101173.16;5012049;28;20204;-79
2022/10/27 04:44:16;;;;;;;5.30;2.40;;;;;;;13.16;100.00;101188.91;5013519;28;20631;-80
2022/10/27 04:46:43;;;;;;;9.27;2.67;;;;;;;13.17;100.00;101186.28;5012005;28;20212;-79
2022/10/27 04:49:10;;;;;;;5.20;2.60;;;;;;;13.15;100.00;101181.97;5010406;28;20212;-80
2022/10/27 04:51:37;;;;;;;7.17;2.50;;;;;;;13.18;100.00;101172.28;5013084;28;20236;-79
2022/10/27 04:54:03;;;;;;;7.43;3.10;;;;;;;13.16;100.00;101168.84;5012192;28;20211;-80
2022/10/27 04:56:30;;;;;;;3.13;2.90;;;;;;;13.18;100.00;101168.78;5010551;28;20216;-78
2022/10/27 04:58:56;;;;;;;3.13;2.60;;;;;;;13.17;100.00;101164.44;5011691;28;20210;-78
2022/10/27 05:01:23;;;;;;;7.90;3.13;;;;;;;13.19;100.00;101166.13;5011888;28;20248;-79
2022/10/27 05:03:50;;;;;;;4.43;2.73;;;;;;;13.17;100.00;101161.81;5011894;28;20261;-81
2022/10/27 05:06:18;;;;;;;6.43;2.83;;;;;;;13.16;100.00;101155.72;5015741;28;20212;-79
2022/10/27 05:08:44;;;;;;;4.40;3.40;;;;;;;13.28;100.00;101165.97;5014523;28;20215;-80
2022/10/27 05:11:11;;;;;;;5.57;3.83;;;;;;;13.32;100.00;101174.69;5015209;28;20237;-80
2022/10/27 05:13:37;;;;;;;6.57;3.63;;;;;;;13.41;100.00;101185.00;5015876;28;20215;-80
2022/10/27 05:16:04;;;;;;;3.93;3.00;;;;;;;13.49;100.00;101185.72;5016482;28;20211;-80
2022/10/27 05:18:31;;;;;;;7.90;4.07;;;;;;;13.53;100.00;101209.28;5015766;28;20224;-80
2022/10/27 05:20:58;;;;;;;5.27;3.90;;;;;;;13.56;100.00;101215.34;5014478;28;20747;-80
2022/10/27 05:23:25;;;;;;;7.93;3.77;;;;;;;13.58;100.00;101221.41;5014065;28;20204;-78
2022/10/27 05:25:52;;;;;;;3.70;3.40;;;;;;;13.61;100.00;101221.34;5015345;28;20207;-80
2022/10/27 05:28:20;;;;;;;6.50;3.87;;;;;;;13.58;100.00;101216.16;5015532;28;20243;-80
2022/10/27 05:30:46;;;;;;;7.57;4.07;;;;;;;13.58;100.00;101212.69;5015957;28;20250;-79
2022/10/27 05:33:13;;;;;;;3.77;3.00;;;;;;;13.61;100.00;101210.00;5015339;28;20217;-80
2022/10/27 05:35:40;;;;;;;4.90;3.50;;;;;;;13.61;100.00;101202.97;5015251;28;20214;-79
2022/10/27 05:38:06;;;;;;;7.70;3.60;;;;;;;13.63;100.00;101200.31;5015140;28;20229;-80
2022/10/27 05:40:34;;;;;;;4.90;3.80;;;;;;;13.59;100.00;101210.00;5014184;28;20243;-80
2022/10/27 05:43:02;;;;;;;6.37;3.60;;;;;;;13.57;100.00;101192.59;5015556;28;20212;-78
2022/10/27 05:45:29;;;;;;;9.17;3.50;;;;;;;13.52;100.00;101195.31;5015517;28;20209;-80
2022/10/27 05:48:00;;;;;;;6.43;3.33;;;;;;;13.50;100.00;101184.84;5014369;28;20208;-79
2022/10/27 05:50:27;;;;;;;5.00;3.40;;;;;;;13.54;100.00;101185.66;5015615;28;20235;-80
2022/10/27 05:52:54;;;;;;;4.13;3.33;;;;;;;13.51;100.00;101183.06;5008466;28;20216;-80
2022/10/27 05:55:22;;;;;;;5.20;3.53;;;;;;;13.50;100.00;101184.84;5015476;28;20208;-80
2022/10/27 05:58:00;;;;;;;5.53;3.27;;;;;;;13.46;100.00;101190.19;5010840;28;20219;-82
2022/10/27 06:00:30;;;;;;;4.40;3.43;;;;;;;13.56;100.00;101196.97;5016333;28;20215;-82
2022/10/27 06:02:56;;;;;;;4.10;3.40;;;;;;;13.63;100.00;101208.19;5016760;28;20208;-83
2022/10/27 06:05:24;;;;;;;5.93;4.37;;;;;;;13.68;100.00;101216.88;5013713;28;20230;-80
2022/10/27 06:07:50;;;;;;;3.77;3.10;;;;;;;13.74;100.00;101235.09;5015535;28;20211;-81
2022/10/27 06:10:17;;;;;;;6.17;5.03;;;;;;;13.78;100.00;101246.41;5015795;28;20236;-82
2022/10/27 06:12:44;;;;;;;8.23;4.80;;;;;;;13.67;100.00;101293.81;5015617;28;20200;-81
2022/10/27 06:15:12;;;;;;;4.73;4.33;;;;;;;13.64;100.00;101314.88;5011385;28;20203;-82
2022/10/27 06:17:38;;;;;;;4.87;4.00;;;;;;;13.59;99.06;101340.31;5016278;28;20224;-81
2022/10/27 06:20:06;;;;;;;5.23;4.17;;;;;;;13.51;98.15;101364.06;5014967;28;20719;-81
2022/10/27 06:22:32;;;;;;;5.77;4.30;;;;;;;13.45;97.73;101375.50;5013459;28;20223;-80
2022/10/27 06:24:58;;;;;;;4.57;4.20;;;;;;;13.39;97.47;101380.00;5015583;28;20682;-81
2022/10/27 06:27:25;;;;;;;4.47;4.10;;;;;;;13.35;97.44;101394.03;5015477;28;20204;-80
2022/10/27 06:29:51;;;;;;;5.27;4.53;;;;;;;13.32;97.23;101394.97;5015080;28;20224;-80
2022/10/27 06:32:19;;;;;;;5.27;4.77;;;;;;;13.25;96.83;101402.00;5016015;28;20201;-80
2022/10/27 06:34:46;;;;;;;6.40;4.67;;;;;;;13.25;97.04;101403.75;5016174;28;20208;-80
2022/10/27 06:37:12;;;;;;;5.60;4.20;;;;;;;13.24;96.83;101402.91;5016255;28;20601;-80
2022/10/27 06:39:40;;;;;;;6.67;4.30;;;;;;;13.21;96.57;101399.47;5016582;28;20201;-80
2022/10/27 06:42:06;;;;;;;4.50;4.10;;;;;;;13.18;96.42;101402.09;5010095;28;20234;-80
2022/10/27 06:44:33;;;;;;;4.90;4.50;;;;;;;13.17;96.45;101390.75;5007581;28;20201;-80
2022/10/27 06:46:59;;;;;;;4.70;4.17;;;;;;;13.19;97.06;101388.13;5002181;28;20201;-80
2022/10/27 06:49:27;;;;;;;5.50;3.77;;;;;;;13.08;97.60;101368.19;4996496;28;20200;-80
2022/10/27 06:51:54;;;;;;;14.57;4.17;;;;;;;13.06;99.43;101345.47;4997212;28;20226;-80
2022/10/27 06:54:20;;;;;;;6.43;3.40;;;;;;;12.99;100.00;101310.63;4997668;28;20315;-80
2022/10/27 06:56:47;;;;;;;4.53;3.10;;;;;;;12.96;100.00;101271.34;4997878;28;20270;-79
2022/10/27 06:59:13;;;;;;;7.33;3.23;;;;;;;12.94;100.00;101248.69;4998128;28;20229;-80
2022/10/27 07:01:40;;;;;;;5.33;3.17;;;;;;;13.00;100.00;101236.38;4997137;28;20718;-79
2022/10/27 07:04:06;;;;;;;15.70;3.97;;;;;;;13.04;100.00;101227.56;4997133;28;20208;-79
2022/10/27 07:06:34;;;;;;;6.23;3.57;;;;;;;13.08;100.00;101221.41;4997028;28;20216;-80
2022/10/27 07:09:00;;;;;;;7.97;3.87;;;;;;;13.13;100.00;101213.44;4996839;28;20204;-81
2022/10/27 07:11:27;;;;;;;7.77;4.63;;;;;;;13.16;100.00;101217.75;4997290;28;20241;-80
2022/10/27 07:13:54;;;;;;;8.40;3.70;;;;;;;13.18;100.00;101213.34;4997942;28;20204;-79
2022/10/27 07:16:20;;;;;;;7.80;4.07;;;;;;;13.25;100.00;101205.34;4997063;28;20212;-80
2022/10/27 07:18:46;;;;;;;12.33;4.70;;;;;;;13.26;100.00;101219.31;4997188;28;20617;-81
2022/10/27 07:21:13;;;;;;;4.37;3.67;;;;;;;13.28;100.00;101222.81;4995964;28;20231;-81
2022/10/27 07:23:40;;;;;;;7.40;3.53;;;;;;;13.32;100.00;101221.91;5004717;28;20196;-81
2022/10/27 07:26:07;;;;;;;10.53;3.87;;;;;;;13.39;100.00;101230.50;5006023;28;20219;-80
2022/10/27 07:28:34;;;;;;;5.73;3.30;;;;;;;13.46;100.00;101225.13;4996128;28;20719;-81
2022/10/27 07:31:00;;;;;;;7.73;3.83;;;;;;;13.48;100.00;101228.59;4997121;28;20228;-80
2022/10/27 07:33:26;;;;;;;5.23;4.23;;;;;;;13.58;100.00;101234.53;4995989;28;20211;-80
2022/10/27 07:35:53;;;;;;;4.20;3.80;;;;;;;13.64;100.00;101252.78;4995605;28;20212;-80
2022/10/27 07:38:20;;;;;;;8.40;3.60;;;;;;;13.65;100.00;101261.50;5000787;28;20219;-79
2022/10/27 07:40:49;;;;;;;9.20;3.23;;;;;;;13.66;100.00;101274.59;5005233;28;20298;-80
2022/10/27 07:43:15;;;;;;;10.03;4.47;;;;;;;13.65;100.00;101259.75;5002344;28;20208;-80
2022/10/27 07:45:42;;;;;;;10.17;3.87;;;;;;;13.70;100.00;101264.91;4996307;28;20209;-80
2022/10/27 07:48:12;;;;;;;7.50;3.20;;;;;;;13.70;100.00;101259.69;4996533;28;20218;-81
2022/10/27 07:50:39;;;;;;;6.80;3.50;;;;;;;13.75;100.00;101252.56;4995801;28;20232;-78
2022/10/27 07:53:06;;;;;;;17.73;4.30;;;;;;;13.82;100.00;101243.69;4996356;28;20218;-79
2022/10/27 07:55:35;;;;;;;3.57;3.27;;;;;;;13.92;100.00;101247.00;4996311;28;20211;-80
2022/10/27 07:58:04;;;;;;;6.53;3.47;;;;;;;14.08;100.00;101260.69;5002299;28;20252;-80
2022/10/27 08:00:32;;;;;;;5.80;3.60;;;;;;;14.27;100.00;101296.19;5005520;28;20216;-79
2022/10/27 08:02:59;;;;;;;5.23;3.30;;;;;;;14.42;100.00;101308.13;5001903;28;20209;-80
2022/10/27 08:05:26;;;;;;;4.67;3.10;;;;;;;14.54;100.00;101329.78;4996227;28;20216;-81
2022/10/27 08:07:52;;;;;;;5.13;3.50;;;;;;;14.69;100.00;101363.66;4996276;28;20215;-80
2022/10/27 08:10:18;;;;;;;4.00;3.10;;;;;;;14.79;100.00;101372.22;4995061;28;20242;-80
2022/10/27 08:12:45;;;;;;;5.87;3.67;;;;;;;14.87;100.00;101375.53;4995746;28;20216;-80
2022/10/27 08:15:13;;;;;;;6.77;3.17;;;;;;;14.94;100.00;101398.16;4995441;28;20304;-80
2022/10/27 08:17:39;;;;;;;5.60;3.60;;;;;;;14.98;100.00;101405.06;4996411;28;20208;-80
2022/10/27 08:20:07;;;;;;;4.17;3.10;;;;;;;15.01;99.73;101409.41;4995424;28;20228;-80
2022/10/27 08:22:33;;;;;;;3.33;2.87;;;;;;;15.06;100.00;101399.63;5004899;28;20208;-79
2022/10/27 08:25:00;;;;;;;3.23;2.93;;;;;;;15.10;99.75;101403.94;5003660;28;20213;-80
2022/10/27 08:27:26;;;;;;;4.63;3.00;;;;;;;15.16;99.08;101418.72;4997480;28;20205;-81
2022/10/27 08:29:53;;;;;;;3.33;3.03;;;;;;;15.23;99.51;101420.31;4995064;28;20220;-81
2022/10/27 08:32:21;;;;;;;3.43;2.60;;;;;;;15.23;99.97;101404.53;4995272;28;20215;-82
2022/10/27 08:34:47;;;;;;;2.93;2.73;;;;;;;15.30;100.00;101408.75;4995228;28;20217;-80
2022/10/27 08:37:13;;;;;;;3.47;2.97;;;;;;;15.30;99.96;101408.75;4994779;28;20212;-81
2022/10/27 08:39:40;;;;;;;4.77;3.73;;;;;;;15.27;100.00;101393.03;4997739;28;20717;-81
2022/10/27 08:42:12;;;;;;;4.83;3.00;;;;;;;15.24;100.00;101365.06;4998611;28;20213;-81
2022/10/27 08:44:43;;;;;;;3.70;2.90;;;;;;;15.19;100.00;101348.50;4998692;28;20216;-80
2022/10/27 08:47:15;;;;;;;5.93;3.13;;;;;;;15.19;100.00;101327.47;4999078;28;20219;-80
2022/10/27 08:49:46;;;;;;;10.27;2.60;;;;;;;15.23;100.00;101333.53;4999976;28;20636;-79
2022/10/27 08:52:18;;;;;;;3.10;2.80;;;;;;;15.24;100.00;101333.50;4999641;28;20216;-81
2022/10/27 08:54:49;;;;;;;6.40;2.90;;;;;;;15.33;100.00;101340.28;4999192;28;20708;-82
2022/10/27 08:57:23;;;;;;;3.57;2.80;;;;;;;15.35;100.00;101348.16;4999444;28;20209;-81
2022/10/27 08:59:52;;;;;;;7.13;2.90;;;;;;;15.44;100.00;101345.28;4999542;28;20611;-79
2022/10/27 09:02:31;;;;;;;5.47;2.67;;;;;;;15.44;100.00;101348.78;4999311;28;20685;-81
2022/10/27 09:05:12;;;;;;;5.37;2.90;;;;;;;15.47;100.00;101380.28;4999121;28;20571;-81
2022/10/27 09:07:47;;;;;;;2.87;2.50;;;;;;;15.51;100.00;101374.94;4999315;28;20213;-81
2022/10/27 09:10:19;;;;;;;4.70;2.80;;;;;;;15.57;99.85;101377.44;4998519;28;20232;-81
2022/10/27 09:13:00;;;;;;;2.57;2.20;;;;;;;15.59;99.62;101386.16;4999239;28;20220;-81
2022/10/27 09:15:36;;;;;;;5.20;2.40;;;;;;;15.57;98.62;101386.19;5004228;28;20212;-81
2022/10/27 09:18:06;;;;;;;3.43;2.63;;;;;;;15.65;98.28;101397.38;5004145;28;20208;-80
2022/10/27 09:20:40;;;;;;;4.67;2.60;;;;;;;15.75;97.67;101407.72;5005313;28;20230;-81
2022/10/27 09:23:13;;;;;;;4.17;2.20;;;;;;;15.74;97.66;101404.22;4998100;28;20271;-80
2022/10/27 09:25:40;;;;;;;3.93;2.30;;;;;;;15.82;96.83;101411.94;5000460;28;20215;-80
2022/10/27 09:28:16;;;;;;;2.93;2.30;;;;;;;15.89;95.63;101424.88;5006190;28;20211;-80
2022/10/27 09:30:45;;;;;;;3.17;2.40;;;;;;;16.01;94.99;101443.94;4999472;28;20843;-79
2022/10/27 09:33:16;;;;;;;4.13;3.10;;;;;;;16.14;93.44;101471.69;4998606;28;20217;-80
2022/10/27 09:35:44;;;;;;;2.73;2.23;;;;;;;16.20;93.33;101475.94;4998625;28;20214;-81
2022/10/27 09:38:15;;;;;;;2.83;2.30;;;;;;;16.22;94.15;101479.41;4998025;28;20215;-79
2022/10/27 09:40:42;;;;;;;3.67;2.40;;;;;;;16.26;92.97;101497.72;4997843;28;20240;-80
2022/10/27 09:43:10;;;;;;;3.17;2.57;;;;;;;16.38;91.68;101514.97;4998596;28;20208;-81
2022/10/27 09:45:37;;;;;;;2.33;2.13;;;;;;;16.45;92.13;101516.56;4998873;28;20220;-81
2022/10/27 09:48:06;;;;;;;2.87;2.33;;;;;;;16.45;93.55;101484.06;4997801;28;20675;-82
2022/10/27 09:50:39;;;;;;;2.60;2.40;;;;;;;16.44;91.72;101508.69;4997351;28;20232;-81
2022/10/27 09:53:37;;;;;;;4.30;2.63;;;;;;;16.53;92.17;101500.56;4998602;28;20225;-81
2022/10/27 09:56:05;;;;;;;2.67;2.33;;;;;;;16.46;94.15;101459.44;4999264;28;20216;-81
2022/10/27 09:58:31;;;;;;;5.47;2.83;;;;;;;16.50;93.97;101449.69;4997748;28;20739;-81
2022/10/27 10:01:00;;;;;;;3.37;2.67;;;;;;;16.53;92.38;101483.84;4997953;28;20229;-81
2022/10/27 10:03:27;;;;;;;5.57;2.30;;;;;;;16.58;90.74;101508.31;4998307;28;20211;-80
2022/10/27 10:06:07;;;;;;;2.60;2.40;;;;;;;16.65;92.22;101512.53;4998051;28;20703;-80
2022/10/27 10:08:36;;;;;;;2.40;2.20;;;;;;;16.66;92.75;101479.97;4998036;28;20209;-79
2022/10/27 10:11:05;;;;;;;2.63;2.10;;;;;;;16.64;92.87;101484.44;4997204;28;20593;-81
2022/10/27 10:13:33;;;;;;;2.30;2.10;;;;;;;16.67;92.30;101484.34;5023090;23;20203;-78
2022/10/27 10:16:11;;;;;;;2.63;2.40;;;;;;;16.66;93.07;101472.06;5021380;28;20607;-83
2022/10/27 10:18:39;;;;;;;2.77;1.90;;;;;;;16.70;92.09;101481.63;5027369;28;20242;-84
2022/10/27 10:21:08;;;;;;;3.23;2.47;;;;;;;16.71;92.59;101464.91;5024020;28;20209;-81
2022/10/27 10:23:50;;;;;;;3.67;2.03;;;;;;;16.73;90.74;101492.09;5022187;28;20229;-83
2022/10/27 10:26:19;;;;;;;2.03;1.93;;;;;;;16.72;91.47;101487.72;5020576;28;20212;-83
2022/10/27 10:28:49;;;;;;;3.87;2.63;;;;;;;16.81;89.25;101534.09;5018305;28;20791;-82
2022/10/27 10:31:23;;;;;;;3.90;2.00;;;;;;;16.90;87.23;101578.66;5015397;28;20207;-82
2022/10/27 10:33:49;;;;;;;3.63;2.27;;;;;;;17.02;87.71;101594.16;5015128;28;20235;-80
2022/10/27 10:36:19;;;;;;;3.13;2.07;;;;;;;17.11;86.18;101623.88;5015396;28;20214;-82
2022/10/27 10:38:53;;;;;;;2.50;2.07;;;;;;;17.23;84.39;101671.03;5014937;28;20739;-79
2022/10/27 10:41:20;;;;;;;3.13;2.10;;;;;;;17.26;84.23;101669.16;5016116;28;20300;-81
2022/10/27 10:44:06;;;;;;;3.63;2.20;;;;;;;17.36;82.41;101727.84;5016333;28;20237;-80
2022/10/27 10:46:33;;;;;;;3.17;2.27;;;;;;;17.41;81.07;101743.56;5005031;28;20602;-81
2022/10/27 10:49:00;;;;;;;4.07;2.17;;;;;;;17.48;82.27;101739.84;5004809;28;20199;-80
2022/10/27 10:51:30;;;;;;;4.73;2.30;;;;;;;17.50;82.66;101724.81;5013787;28;20542;-83
2022/10/27 10:54:02;;;;;;;1.97;1.77;;;;;;;17.44;81.21;101728.50;5018445;28;20238;-80
2022/10/27 10:56:30;;;;;;;2.53;2.33;;;;;;;17.53;81.87;101729.16;5016471;28;20560;-80
2022/10/27 10:59:04;;;;;;;2.73;1.70;;;;;;;17.62;82.17;101726.25;5015631;28;20232;-82
2022/10/27 11:01:44;;;;;;;3.63;1.80;;;;;;;17.62;82.71;101705.13;5006625;28;20206;-79
2022/10/27 11:04:13;;;;;;;1.93;1.83;;;;;;;17.56;82.56;101686.81;5005309;28;20709;-81
2022/10/27 11:06:58;;;;;;;3.17;1.40;;;;;;;17.62;82.44;101684.00;5005630;28;20203;-80
2022/10/27 11:09:30;;;;;;;1.93;1.80;;;;;;;17.67;84.29;101629.31;5006688;28;20198;-81
2022/10/27 11:11:58;;;;;;;2.60;1.50;;;;;;;17.69;80.76;101671.50;5009288;28;20234;-82
2022/10/27 11:14:34;;;;;;;6.63;1.80;;;;;;;17.76;81.01;101703.00;5012653;28;20234;-83
2022/10/27 11:17:03;;;;;;;3.00;1.83;;;;;;;17.89;81.05;101686.81;5007918;28;20210;-81
2022/10/27 11:19:37;;;;;;;2.63;1.57;;;;;;;17.87;80.83;101700.06;5008175;28;20273;-80
2022/10/27 11:22:07;;;;;;;2.37;1.70;;;;;;;17.93;81.13;101691.94;5007545;28;20229;-80
2022/10/27 11:24:44;;;;;;;2.60;1.60;;;;;;;17.92;82.08;101669.09;5004138;28;20230;-81
2022/10/27 11:27:15;;;;;;;3.00;1.47;;;;;;;17.95;82.52;101620.59;5008917;28;20210;-81